Time,TemperatureF,DewpointF,PressureIn,WindDirection,WindDirectionDegrees,WindSpeedMPH,WindSpeedGustMPH,Humidity,HourlyPrecipIn,Conditions,Clouds,dailyrainin,SoftwareType,DateUTC
2013-02-27 00:09:00,42.9,40.0,29.46,WSW,239,10.0,15.0,90,0.00,,,0.00,weatherlink.com 1.10,2013-02-27 05:09:00,
2013-02-27 00:24:00,42.9,40.0,29.46,SW,229,10.0,12.0,90,0.00,,,0.00,weatherlink.com 1.10,2013-02-27 05:24:00,
2013-02-27 00:39:00,42.9,40.0,29.46,West,265,5.0,13.0,90,0.00,,,0.00,weatherlink.com 1.10,2013-02-27 05:39:00,
2013-02-27 00:54:00,42.7,40.0,29.46,SSW,211,6.0,16.0,89,0.00,,,0.00,weatherlink.com 1.10,2013-02-27 05:54:00,
2013-02-27 01:09:00,42.7,40.0,29.47,SW,227,8.0,13.0,89,0.00,,,0.00,weatherlink.com 1.10,2013-02-27 06:09:00,
2013-02-27 01:24:00,42.5,40.0,29.47,South,188,6.0,11.0,89,0.00,,,0.00,weatherlink.com 1.10,2013-02-27 06:24:00,
2013-02-27 01:41:00,41.9,39.0,29.48,SW,222,8.0,14.0,89,0.00,,,0.00,weatherlink.com 1.10,2013-02-27 06:41:00,
2013-02-27 01:55:00,41.6,38.0,29.49,SSW,202,7.0,16.0,88,0.00,,,0.00,weatherlink.com 1.10,2013-02-27 06:55:00,
2013-02-27 02:10:00,41.3,38.0,29.49,SSW,208,4.0,17.0,89,0.01,,,0.01,weatherlink.com 1.10,2013-02-27 07:10:00,
2013-02-27 02:25:00,41.0,38.0,29.49,SW,234,7.0,14.0,89,0.02,,,0.02,weatherlink.com 1.10,2013-02-27 07:25:00,
2013-02-27 02:40:00,40.8,38.0,29.49,SSW,192,8.0,16.0,89,0.03,,,0.03,weatherlink.com 1.10,2013-02-27 07:40:00,
2013-02-27 02:55:00,40.7,38.0,29.49,SW,228,7.0,13.0,89,0.05,,,0.05,weatherlink.com 1.10,2013-02-27 07:55:00,
2013-02-27 03:10:00,40.5,38.0,29.49,SSW,196,7.0,14.0,90,0.04,,,0.05,weatherlink.com 1.10,2013-02-27 08:10:00,
2013-02-27 03:25:00,40.4,38.0,29.49,SW,223,5.0,13.0,90,0.03,,,0.05,weatherlink.com 1.10,2013-02-27 08:25:00,
2013-02-27 03:40:00,40.2,38.0,29.49,SW,235,10.0,14.0,90,0.01,,,0.05,weatherlink.com 1.10,2013-02-27 08:40:00,
2013-02-27 03:55:00,40.1,37.0,29.50,SW,225,5.0,15.0,89,0.01,,,0.06,weatherlink.com 1.10,2013-02-27 08:55:00,
2013-02-27 04:10:00,40.0,37.0,29.50,SSW,199,11.0,15.0,89,0.01,,,0.06,weatherlink.com 1.10,2013-02-27 09:10:00,
2013-02-27 04:25:00,40.0,37.0,29.50,SW,224,12.0,18.0,89,0.01,,,0.06,weatherlink.com 1.10,2013-02-27 09:25:00,
2013-02-27 04:40:00,39.9,37.0,29.50,WSW,244,5.0,15.0,88,0.01,,,0.06,weatherlink.com 1.10,2013-02-27 09:40:00,
2013-02-27 04:55:00,39.8,37.0,29.51,SW,225,8.0,14.0,88,0.00,,,0.06,weatherlink.com 1.10,2013-02-27 09:55:00,
2013-02-27 05:10:00,39.8,36.0,29.52,SW,219,7.0,13.0,87,0.00,,,0.06,weatherlink.com 1.10,2013-02-27 10:10:00,
2013-02-27 05:26:00,39.7,36.0,29.52,SSW,213,5.0,12.0,87,0.00,,,0.06,weatherlink.com 1.10,2013-02-27 10:26:00,
2013-02-27 05:41:00,39.6,36.0,29.52,SSW,200,6.0,12.0,87,0.00,,,0.06,weatherlink.com 1.10,2013-02-27 10:41:00,
2013-02-27 05:56:00,39.2,36.0,29.52,SW,217,6.0,11.0,87,0.00,,,0.06,weatherlink.com 1.10,2013-02-27 10:56:00,
2013-02-27 06:11:00,38.9,35.0,29.53,SSW,212,5.0,12.0,87,0.00,,,0.06,weatherlink.com 1.10,2013-02-27 11:11:00,
2013-02-27 06:26:00,38.8,35.0,29.53,SW,224,5.0,10.0,87,0.00,,,0.06,weatherlink.com 1.10,2013-02-27 11:26:00,
2013-02-27 06:42:00,38.8,35.0,29.54,SSW,192,6.0,11.0,87,0.00,,,0.06,weatherlink.com 1.10,2013-02-27 11:42:00,
2013-02-27 06:56:00,38.8,35.0,29.55,SSW,208,7.0,11.0,87,0.00,,,0.06,weatherlink.com 1.10,2013-02-27 11:56:00,
2013-02-27 07:12:00,38.8,35.0,29.55,SSW,211,5.0,15.0,87,0.00,,,0.06,weatherlink.com 1.10,2013-02-27 12:12:00,
2013-02-27 07:26:00,38.8,35.0,29.56,SSW,196,3.0,10.0,87,0.00,,,0.06,weatherlink.com 1.10,2013-02-27 12:26:00,
2013-02-27 07:41:00,38.9,35.0,29.57,South,187,4.0,10.0,87,0.00,,,0.06,weatherlink.com 1.10,2013-02-27 12:41:00,
2013-02-27 07:56:00,38.9,35.0,29.58,SW,217,7.0,10.0,87,0.00,,,0.06,weatherlink.com 1.10,2013-02-27 12:56:00,
2013-02-27 08:11:00,39.0,36.0,29.58,South,175,7.0,11.0,88,0.00,,,0.06,weatherlink.com 1.10,2013-02-27 13:11:00,
2013-02-27 08:26:00,39.1,36.0,29.59,WSW,253,8.0,14.0,88,0.00,,,0.06,weatherlink.com 1.10,2013-02-27 13:26:00,
2013-02-27 08:41:00,39.2,36.0,29.59,SW,224,8.0,14.0,88,0.00,,,0.06,weatherlink.com 1.10,2013-02-27 13:41:00,
2013-02-27 08:57:00,39.3,36.0,29.60,SSW,198,5.0,9.0,88,0.00,,,0.06,weatherlink.com 1.10,2013-02-27 13:57:00,
2013-02-27 09:27:00,39.5,36.0,29.60,SSW,203,5.0,14.0,88,0.00,,,0.06,weatherlink.com 1.10,2013-02-27 14:27:00,
2013-02-27 09:42:00,39.7,36.0,29.60,SW,222,6.0,16.0,87,0.00,,,0.06,weatherlink.com 1.10,2013-02-27 14:42:00,
2013-02-27 09:58:00,40.1,36.0,29.60,SSW,208,7.0,12.0,86,0.00,,,0.06,weatherlink.com 1.10,2013-02-27 14:58:00,
2013-02-27 10:12:00,40.7,37.0,29.60,SSW,213,7.0,12.0,85,0.00,,,0.06,weatherlink.com 1.10,2013-02-27 15:12:00,
2013-02-27 10:27:00,40.8,36.0,29.60,SSW,211,7.0,17.0,83,0.00,,,0.06,weatherlink.com 1.10,2013-02-27 15:27:00,
2013-02-27 10:42:00,40.6,36.0,29.61,SW,231,12.0,14.0,82,0.00,,,0.06,weatherlink.com 1.10,2013-02-27 15:42:00,
2013-02-27 10:57:00,40.3,35.0,29.61,WSW,247,7.0,18.0,82,0.00,,,0.06,weatherlink.com 1.10,2013-02-27 15:57:00,
2013-02-27 11:12:00,39.9,35.0,29.61,SSW,204,7.0,20.0,83,0.00,,,0.06,weatherlink.com 1.10,2013-02-27 16:12:00,
2013-02-27 11:27:00,39.5,35.0,29.61,South,176,6.0,16.0,84,0.00,,,0.06,weatherlink.com 1.10,2013-02-27 16:27:00,
2013-02-27 11:42:00,39.1,35.0,29.61,South,184,6.0,18.0,86,0.00,,,0.06,weatherlink.com 1.10,2013-02-27 16:42:00,
2013-02-27 11:57:00,38.0,35.0,29.61,WSW,240,7.0,19.0,87,0.01,,,0.07,weatherlink.com 1.10,2013-02-27 16:57:00,
2013-02-27 12:12:00,37.8,35.0,29.61,South,186,10.0,16.0,88,0.02,,,0.08,weatherlink.com 1.10,2013-02-27 17:12:00,
2013-02-27 12:27:00,38.0,35.0,29.61,SW,216,5.0,13.0,89,0.02,,,0.08,weatherlink.com 1.10,2013-02-27 17:27:00,
2013-02-27 12:42:00,38.2,35.0,29.61,South,187,10.0,17.0,89,0.02,,,0.08,weatherlink.com 1.10,2013-02-27 17:42:00,
2013-02-27 13:13:00,37.6,34.0,29.60,SW,215,7.0,22.0,86,0.00,,,0.08,weatherlink.com 1.10,2013-02-27 18:13:00,
2013-02-27 13:28:00,37.5,34.0,29.60,WSW,245,10.0,20.0,88,0.01,,,0.09,weatherlink.com 1.10,2013-02-27 18:28:00,
2013-02-27 13:43:00,38.3,35.0,29.60,SW,225,8.0,21.0,88,0.01,,,0.09,weatherlink.com 1.10,2013-02-27 18:43:00,
2013-02-27 13:58:00,38.0,35.0,29.60,WSW,252,10.0,16.0,87,0.01,,,0.09,weatherlink.com 1.10,2013-02-27 18:58:00,
2013-02-27 14:13:00,37.8,34.0,29.60,WSW,240,3.0,11.0,87,0.01,,,0.09,weatherlink.com 1.10,2013-02-27 19:13:00,
2013-02-27 14:28:00,37.4,34.0,29.60,SW,229,3.0,17.0,87,0.00,,,0.09,weatherlink.com 1.10,2013-02-27 19:28:00,
2013-02-27 14:43:00,37.2,34.0,29.60,SW,227,6.0,11.0,87,0.00,,,0.09,weatherlink.com 1.10,2013-02-27 19:43:00,
2013-02-27 14:58:00,37.2,34.0,29.60,West,269,7.0,12.0,88,0.01,,,0.10,weatherlink.com 1.10,2013-02-27 19:58:00,
2013-02-27 15:14:00,36.7,33.0,29.61,WSW,241,8.0,17.0,87,0.01,,,0.10,weatherlink.com 1.10,2013-02-27 20:14:00,
2013-02-27 15:29:00,36.2,33.0,29.62,WSW,241,12.0,19.0,87,0.02,,,0.11,weatherlink.com 1.10,2013-02-27 20:29:00,
2013-02-27 15:43:00,35.7,33.0,29.62,WSW,239,7.0,14.0,88,0.02,,,0.11,weatherlink.com 1.10,2013-02-27 20:43:00,
2013-02-27 15:58:00,35.7,33.0,29.62,WSW,237,9.0,17.0,88,0.01,,,0.11,weatherlink.com 1.10,2013-02-27 20:58:00,
2013-02-27 16:13:00,35.8,32.0,29.62,WSW,243,3.0,12.0,87,0.01,,,0.11,weatherlink.com 1.10,2013-02-27 21:13:00,
2013-02-27 16:29:00,35.4,32.0,29.63,SW,217,7.0,16.0,86,0.00,,,0.11,weatherlink.com 1.10,2013-02-27 21:29:00,
2013-02-27 16:44:00,35.5,32.0,29.63,SW,232,14.0,14.0,87,0.00,,,0.11,weatherlink.com 1.10,2013-02-27 21:44:00,
2013-02-27 16:58:00,35.5,32.0,29.63,WSW,252,5.0,16.0,86,0.00,,,0.11,weatherlink.com 1.10,2013-02-27 21:58:00,
2013-02-27 17:13:00,35.7,31.0,29.64,WSW,253,9.0,15.0,84,0.00,,,0.11,weatherlink.com 1.10,2013-02-27 22:13:00,
2013-02-27 17:29:00,35.6,31.0,29.64,WSW,240,11.0,20.0,83,0.00,,,0.11,weatherlink.com 1.10,2013-02-27 22:29:00,
2013-02-27 17:44:00,35.5,31.0,29.65,SW,226,7.0,13.0,84,0.00,,,0.11,weatherlink.com 1.10,2013-02-27 22:44:00,
2013-02-27 17:59:00,35.4,31.0,29.65,WSW,248,8.0,15.0,84,0.00,,,0.11,weatherlink.com 1.10,2013-02-27 22:59:00,
2013-02-27 18:14:00,35.2,31.0,29.65,SW,227,9.0,18.0,85,0.00,,,0.11,weatherlink.com 1.10,2013-02-27 23:14:00,
2013-02-27 18:29:00,34.7,31.0,29.66,SW,217,6.0,13.0,86,0.00,,,0.11,weatherlink.com 1.10,2013-02-27 23:29:00,
2013-02-27 18:44:00,34.3,31.0,29.66,South,190,11.0,12.0,87,0.00,,,0.11,weatherlink.com 1.10,2013-02-27 23:44:00,
2013-02-27 18:59:00,34.1,31.0,29.66,WSW,250,7.0,13.0,87,0.00,,,0.11,weatherlink.com 1.10,2013-02-27 23:59:00,
2013-02-27 19:14:00,34.0,31.0,29.66,SW,220,9.0,13.0,88,0.00,,,0.11,weatherlink.com 1.10,2013-02-28 00:14:00,
2013-02-27 19:29:00,33.8,30.0,29.66,SW,223,5.0,14.0,87,0.00,,,0.11,weatherlink.com 1.10,2013-02-28 00:29:00,
2013-02-27 19:44:00,33.6,30.0,29.66,SW,217,6.0,15.0,87,0.00,,,0.11,weatherlink.com 1.10,2013-02-28 00:44:00,
2013-02-27 19:59:00,33.5,30.0,29.66,West,261,14.0,14.0,87,0.00,,,0.11,weatherlink.com 1.10,2013-02-28 00:59:00,
2013-02-27 20:14:00,33.4,30.0,29.66,SW,218,6.0,16.0,88,0.00,,,0.11,weatherlink.com 1.10,2013-02-28 01:14:00,
2013-02-27 20:29:00,33.4,30.0,29.66,West,260,5.0,12.0,88,0.00,,,0.11,weatherlink.com 1.10,2013-02-28 01:29:00,
2013-02-27 20:44:00,33.4,30.0,29.66,SW,215,6.0,14.0,88,0.00,,,0.11,weatherlink.com 1.10,2013-02-28 01:44:00,
2013-02-27 21:00:00,33.4,30.0,29.66,SW,227,4.0,15.0,88,0.00,,,0.11,weatherlink.com 1.10,2013-02-28 02:00:00,
2013-02-27 21:15:00,33.5,30.0,29.66,SSW,194,9.0,16.0,88,0.00,,,0.11,weatherlink.com 1.10,2013-02-28 02:15:00,
2013-02-27 21:30:00,33.4,30.0,29.66,SW,234,7.0,12.0,88,0.00,,,0.11,weatherlink.com 1.10,2013-02-28 02:30:00,
2013-02-27 21:45:00,33.3,30.0,29.66,South,180,6.0,13.0,89,0.00,,,0.11,weatherlink.com 1.10,2013-02-28 02:45:00,
2013-02-27 22:00:00,33.4,31.0,29.65,WSW,242,7.0,11.0,89,0.00,,,0.11,weatherlink.com 1.10,2013-02-28 03:00:00,
2013-02-27 22:15:00,33.4,31.0,29.65,SW,225,8.0,11.0,89,0.00,,,0.11,weatherlink.com 1.10,2013-02-28 03:15:00,
2013-02-27 22:30:00,33.4,31.0,29.65,SW,219,7.0,13.0,89,0.00,,,0.11,weatherlink.com 1.10,2013-02-28 03:30:00,
2013-02-27 22:45:00,33.4,31.0,29.65,SW,219,5.0,13.0,89,0.00,,,0.11,weatherlink.com 1.10,2013-02-28 03:45:00,
2013-02-27 23:00:00,33.4,31.0,29.65,SW,233,7.0,11.0,89,0.00,,,0.11,weatherlink.com 1.10,2013-02-28 04:00:00,
2013-02-27 23:30:00,33.4,30.0,29.64,SW,215,5.0,12.0,88,0.00,,,0.11,weatherlink.com 1.10,2013-02-28 04:30:00,
2013-02-27 23:45:00,33.4,30.0,29.64,SW,227,3.0,11.0,88,0.00,,,0.11,weatherlink.com 1.10,2013-02-28 04:45:00,